createdAt,value
2024-03-09T00:01:50.835Z,95644.22
2024-03-09T00:04:17.673Z,95644.78
2024-03-09T00:06:44.436Z,95633.56
2024-03-09T00:09:11.162Z,95633.59
2024-03-09T00:11:38.043Z,95633.19
2024-03-09T00:14:04.888Z,95622.75
2024-03-09T00:16:33.049Z,95629.91
2024-03-09T00:18:59.767Z,95627.50
2024-03-09T00:21:26.483Z,95628.25
2024-03-09T00:23:53.231Z,95630.16
2024-03-09T00:26:19.942Z,95634.34
2024-03-09T00:28:46.761Z,95630.44
2024-03-09T00:31:13.766Z,95641.69
2024-03-09T00:33:42.095Z,95628.03
2024-03-09T00:36:10.175Z,95629.91
2024-03-09T00:38:38.993Z,95628.38
2024-03-09T00:41:05.934Z,95632.09
2024-03-09T00:43:32.866Z,95628.03
2024-03-09T00:45:59.587Z,95629.00
2024-03-09T00:48:26.335Z,95624.91
2024-03-09T00:50:54.436Z,95619.84
2024-03-09T00:53:21.265Z,95626.81
2024-03-09T00:55:47.999Z,95628.81
2024-03-09T00:58:14.875Z,95631.84
2024-03-09T01:00:41.616Z,95628.00
2024-03-09T01:03:08.381Z,95626.06
2024-03-09T01:05:35.179Z,95621.25
2024-03-09T01:08:03.586Z,95607.47
2024-03-09T01:10:30.347Z,95610.78
2024-03-09T01:12:57.045Z,95602.75
2024-03-09T01:15:23.867Z,95600.63
2024-03-09T01:17:50.786Z,95602.06
2024-03-09T01:20:17.630Z,95599.94
2024-03-09T01:22:44.600Z,95602.31
2024-03-09T01:25:13.006Z,95600.69
2024-03-09T01:27:39.772Z,95603.16
2024-03-09T01:30:07.703Z,95598.69
2024-03-09T01:32:34.522Z,95596.59
2024-03-09T01:35:01.404Z,95595.84
2024-03-09T01:37:28.194Z,95597.16
2024-03-09T01:39:55.152Z,95591.75
2024-03-09T01:42:23.329Z,95588.41
2024-03-09T01:44:50.438Z,95577.63
2024-03-09T01:47:17.351Z,95579.66
2024-03-09T01:49:44.097Z,95577.56
2024-03-09T01:52:10.919Z,95572.69
2024-03-09T01:54:40.516Z,95566.28
2024-03-09T01:57:08.641Z,95567.28
2024-03-09T01:59:36.733Z,95559.63
2024-03-09T02:02:03.687Z,95554.31
2024-03-09T02:04:30.499Z,95554.69
2024-03-09T02:06:57.293Z,95543.44
2024-03-09T02:09:23.997Z,95548.25
2024-03-09T02:11:50.748Z,95550.53
2024-03-09T02:14:17.576Z,95555.22
2024-03-09T02:16:45.666Z,95544.91
2024-03-09T02:19:12.361Z,95545.16
2024-03-09T02:21:39.064Z,95540.28
2024-03-09T02:24:07.122Z,95545.56
2024-03-09T02:26:35.311Z,95539.38
2024-03-09T02:29:02.071Z,95534.88
2024-03-09T02:31:28.889Z,95534.03
2024-03-09T02:33:55.670Z,95541.19
2024-03-09T02:36:25.505Z,95541.03
2024-03-09T02:38:52.244Z,95553.00
2024-03-09T02:41:19.072Z,95553.56
2024-03-09T02:43:47.210Z,95549.19
2024-03-09T02:46:14.027Z,95550.69
2024-03-09T02:48:42.920Z,95550.94
2024-03-09T02:51:09.651Z,95553.53
2024-03-09T02:53:36.361Z,95557.03
2024-03-09T02:56:03.438Z,95558.78
2024-03-09T02:58:30.313Z,95556.38
2024-03-09T03:00:58.452Z,95560.50
2024-03-09T03:03:25.231Z,95560.25
2024-03-09T03:05:51.937Z,95571.41
2024-03-09T03:08:18.634Z,95564.63
2024-03-09T03:10:45.416Z,95567.28
2024-03-09T03:13:12.954Z,95557.22
2024-03-09T03:15:39.696Z,95551.78
2024-03-09T03:18:08.154Z,95556.34
2024-03-09T03:20:35.486Z,95555.78
2024-03-09T03:23:04.002Z,95548.84
2024-03-09T03:25:31.018Z,95552.97
2024-03-09T03:27:57.791Z,95539.28
2024-03-09T03:30:24.650Z,95542.88
2024-03-09T03:32:51.397Z,95541.00
2024-03-09T03:35:19.565Z,95533.53
2024-03-09T03:37:46.292Z,95535.19
2024-03-09T03:40:13.447Z,95530.88
2024-03-09T03:42:40.130Z,95533.16
2024-03-09T03:45:07.729Z,95535.75
2024-03-09T03:47:34.486Z,95535.72
2024-03-09T03:50:01.886Z,95534.28
2024-03-09T03:52:30.782Z,95544.91
2024-03-09T03:54:58.221Z,95551.06
2024-03-09T03:57:25.775Z,95538.41
2024-03-09T03:59:53.066Z,95538.03
2024-03-09T04:02:20.258Z,95543.09
2024-03-09T04:04:47.544Z,95548.44
2024-03-09T04:07:15.027Z,95549.19
2024-03-09T04:09:43.754Z,95542.19
2024-03-09T04:12:11.098Z,95536.94
2024-03-09T04:14:38.390Z,95535.28
2024-03-09T04:17:05.901Z,95540.53
2024-03-09T04:19:36.258Z,95537.50
2024-03-09T04:22:03.685Z,95525.59
2024-03-09T04:24:31.156Z,95529.19
2024-03-09T04:27:00.749Z,95536.88
2024-03-09T04:29:30.776Z,95524.28
2024-03-09T04:31:58.116Z,95519.16
2024-03-09T04:34:25.438Z,95525.81
2024-03-09T04:36:52.788Z,95516.81
2024-03-09T04:39:23.077Z,95512.88
2024-03-09T04:41:50.264Z,95521.88
2024-03-09T04:44:25.088Z,95522.44
2024-03-09T04:46:56.749Z,95510.31
2024-03-09T04:49:23.467Z,95506.97
2024-03-09T04:51:50.220Z,95507.66
2024-03-09T04:54:17.030Z,95512.56
2024-03-09T04:56:43.842Z,95513.75
2024-03-09T04:59:10.665Z,95515.53
2024-03-09T05:01:38.948Z,95504.94
2024-03-09T05:04:05.690Z,95509.81
2024-03-09T05:06:32.415Z,95507.22
2024-03-09T05:08:59.243Z,95508.03
2024-03-09T05:11:26.044Z,95516.41
2024-03-09T05:13:52.904Z,95513.38
2024-03-09T05:16:19.633Z,95520.22
2024-03-09T05:18:47.788Z,95513.56
2024-03-09T05:21:14.598Z,95505.44
2024-03-09T05:23:41.361Z,95499.50
2024-03-09T05:26:08.185Z,95508.56
2024-03-09T05:28:34.948Z,95508.56
2024-03-09T05:31:01.726Z,95512.25
2024-03-09T05:33:28.454Z,95524.97
2024-03-09T05:35:56.540Z,95517.31
2024-03-09T05:38:23.266Z,95516.16
2024-03-09T05:40:50.040Z,95504.94
2024-03-09T05:43:16.842Z,95516.03
2024-03-09T05:45:43.617Z,95515.88
2024-03-09T05:48:10.849Z,95509.63
2024-03-09T05:50:37.621Z,95505.28
2024-03-09T05:53:06.465Z,95501.88
2024-03-09T05:55:33.645Z,95509.00
2024-03-09T05:58:00.405Z,95502.59
2024-03-09T06:00:27.664Z,95499.63
2024-03-09T06:02:54.381Z,95501.94
2024-03-09T06:05:21.216Z,95498.50
2024-03-09T06:07:47.975Z,95502.28
2024-03-09T06:10:16.730Z,95483.97
2024-03-09T06:12:43.524Z,95475.47
2024-03-09T06:15:10.713Z,95484.94
2024-03-09T06:17:37.561Z,95477.44
2024-03-09T06:20:05.079Z,95470.84
2024-03-09T06:22:31.899Z,95459.16
2024-03-09T06:24:58.651Z,95457.56
2024-03-09T06:27:26.754Z,95458.13
2024-03-09T06:29:53.487Z,95461.13
2024-03-09T06:32:20.248Z,95455.22
2024-03-09T06:34:47.163Z,95455.31
2024-03-09T06:37:14.075Z,95474.13
2024-03-09T06:39:40.928Z,95462.16
2024-03-09T06:42:08.002Z,95445.25
2024-03-09T06:44:36.068Z,95458.06
2024-03-09T06:47:02.902Z,95453.97
2024-03-09T06:49:29.737Z,95452.25
2024-03-09T06:51:56.491Z,95441.06
2024-03-09T06:54:23.193Z,95435.50
2024-03-09T06:56:49.947Z,95422.56
2024-03-09T06:59:16.698Z,95415.06
2024-03-09T07:01:44.849Z,95415.28
2024-03-09T07:04:11.569Z,95413.09
2024-03-09T07:06:38.341Z,95408.59
2024-03-09T07:09:05.069Z,95406.56
2024-03-09T07:11:31.810Z,95397.19
2024-03-09T07:13:58.664Z,95395.38
2024-03-09T07:16:25.384Z,95388.53
2024-03-09T07:18:53.517Z,95389.47
2024-03-09T07:21:20.307Z,95376.69
2024-03-09T07:23:47.009Z,95376.69
2024-03-09T07:26:13.807Z,95380.47
2024-03-09T07:28:40.706Z,95361.03
2024-03-09T07:31:07.506Z,95360.78
2024-03-09T07:33:34.349Z,95359.56
2024-03-09T07:36:02.720Z,95354.31
2024-03-09T07:38:29.562Z,95334.72
2024-03-09T07:40:56.395Z,95330.84
2024-03-09T07:43:23.144Z,95320.56
2024-03-09T07:45:50.100Z,95328.75
2024-03-09T07:48:16.966Z,95313.19
2024-03-09T07:50:44.009Z,95316.19
2024-03-09T07:53:12.316Z,95310.97
2024-03-09T07:55:39.207Z,95301.75
2024-03-09T07:58:14.408Z,95295.44
2024-03-09T08:00:49.004Z,95290.44
2024-03-09T08:03:15.949Z,95280.94
2024-03-09T08:05:43.214Z,95285.19
2024-03-09T08:08:10.429Z,95275.13
2024-03-09T08:10:38.955Z,95280.72
2024-03-09T08:13:05.805Z,95281.78
2024-03-09T08:15:32.573Z,95278.88
2024-03-09T08:17:59.483Z,95269.84
2024-03-09T08:20:26.287Z,95268.25
2024-03-09T08:22:53.077Z,95273.59
2024-03-09T08:25:19.978Z,95263.47
2024-03-09T08:27:48.448Z,95265.34
2024-03-09T08:30:16.154Z,95269.06
2024-03-09T08:32:43.698Z,95272.78
2024-03-09T08:35:11.037Z,95258.94
2024-03-09T08:37:38.240Z,95261.06
2024-03-09T08:40:07.129Z,95262.94
2024-03-09T08:42:34.088Z,95254.41
2024-03-09T08:45:03.377Z,95232.09
2024-03-09T08:47:30.310Z,95241.66
2024-03-09T08:49:57.209Z,95239.81
2024-03-09T08:52:24.024Z,95240.06
2024-03-09T08:54:50.848Z,95224.91
2024-03-09T08:57:17.594Z,95227.56
2024-03-09T08:59:44.488Z,95228.56
2024-03-09T09:02:12.618Z,95229.66
2024-03-09T09:04:39.397Z,95236.28
2024-03-09T09:07:06.143Z,95225.91
2024-03-09T09:09:32.956Z,95223.81
2024-03-09T09:11:59.868Z,95224.34
2024-03-09T09:14:26.906Z,95221.94
2024-03-09T09:16:53.646Z,95209.69
2024-03-09T09:19:21.747Z,95216.34
2024-03-09T09:21:48.717Z,95232.50
2024-03-09T09:24:15.444Z,95229.59
2024-03-09T09:26:42.175Z,95228.03
2024-03-09T09:29:09.021Z,95227.78
2024-03-09T09:31:36.117Z,95227.25
2024-03-09T09:34:02.948Z,95215.06
2024-03-09T09:36:31.088Z,95209.22
2024-03-09T09:38:57.862Z,95207.09
2024-03-09T09:41:24.696Z,95206.81
2024-03-09T09:43:56.262Z,95208.69
2024-03-09T09:46:23.077Z,95199.66
2024-03-09T09:48:49.794Z,95207.88
2024-03-09T09:51:16.668Z,95198.06
2024-03-09T09:53:44.758Z,95206.81
2024-03-09T09:56:11.527Z,95204.44
2024-03-09T09:58:38.360Z,95213.22
2024-03-09T10:01:05.268Z,95196.97
2024-03-09T10:03:32.027Z,95197.78
2024-03-09T10:05:58.778Z,95197.00
2024-03-09T10:08:25.481Z,95179.44
2024-03-09T10:10:53.709Z,95194.31
2024-03-09T10:13:20.556Z,95188.69
2024-03-09T10:15:47.982Z,95194.81
2024-03-09T10:18:15.110Z,95200.94
2024-03-09T10:20:41.878Z,95201.97
2024-03-09T10:23:10.483Z,95185.75
2024-03-09T10:25:37.859Z,95193.94
2024-03-09T10:28:06.775Z,95203.09
2024-03-09T10:30:33.644Z,95209.41
2024-03-09T10:33:00.401Z,95208.06
2024-03-09T10:35:27.336Z,95212.84
2024-03-09T10:37:54.658Z,95211.69
2024-03-09T10:40:21.400Z,95210.09
2024-03-09T10:42:49.098Z,95207.44
2024-03-09T10:45:17.923Z,95211.84
2024-03-09T10:47:47.949Z,95194.25
2024-03-09T10:50:15.291Z,95204.81
2024-03-09T10:52:42.090Z,95214.53
2024-03-09T10:55:10.561Z,95205.22
2024-03-09T10:57:37.289Z,95200.84
2024-03-09T11:00:04.624Z,95194.09
2024-03-09T11:02:32.819Z,95195.94
2024-03-09T11:04:59.703Z,95201.50
2024-03-09T11:07:26.541Z,95202.44
2024-03-09T11:09:53.332Z,95194.16
2024-03-09T11:12:20.386Z,95197.44
2024-03-09T11:14:50.491Z,95211.03
2024-03-09T11:17:20.561Z,95202.06
2024-03-09T11:19:50.946Z,95191.78
2024-03-09T11:22:39.573Z,95192.22
2024-03-09T11:25:08.146Z,95195.44
2024-03-09T11:27:34.813Z,95196.69
2024-03-09T11:30:01.586Z,95194.34
2024-03-09T11:32:28.316Z,95184.38
2024-03-09T11:35:30.283Z,95186.66
2024-03-09T11:37:57.035Z,95178.91
2024-03-09T11:40:23.976Z,95171.63
2024-03-09T11:42:59.266Z,95170.00
2024-03-09T11:45:27.204Z,95170.75
2024-03-09T11:47:54.132Z,95179.50
2024-03-09T11:50:21.001Z,95177.44
2024-03-09T11:52:49.164Z,95178.38
2024-03-09T11:55:16.177Z,95173.78
2024-03-09T11:57:43.793Z,95167.56
2024-03-09T12:00:11.182Z,95172.38
2024-03-09T12:02:38.320Z,95161.53
2024-03-09T12:05:09.819Z,95172.84
2024-03-09T12:07:36.579Z,95162.22
2024-03-09T12:10:05.929Z,95156.72
2024-03-09T12:12:35.195Z,95156.19
2024-03-09T12:15:01.984Z,95155.00
2024-03-09T12:17:28.763Z,95163.59
2024-03-09T12:19:55.501Z,95155.25
2024-03-09T12:22:22.257Z,95146.41
2024-03-09T12:24:49.018Z,95140.53
2024-03-09T12:27:17.082Z,95140.31
2024-03-09T12:29:43.839Z,95144.59
2024-03-09T12:32:10.674Z,95136.00
2024-03-09T12:34:38.466Z,95134.34
2024-03-09T12:37:05.483Z,95128.50
2024-03-09T12:39:32.326Z,95115.13
2024-03-09T12:42:01.781Z,95125.94
2024-03-09T12:44:35.069Z,95121.88
2024-03-09T12:47:01.915Z,95100.09
2024-03-09T12:49:28.675Z,95084.28
2024-03-09T12:51:55.372Z,95081.81
2024-03-09T12:54:22.197Z,95096.63
2024-03-09T12:56:50.142Z,95099.53
2024-03-09T12:59:18.180Z,95089.47
2024-03-09T13:01:46.499Z,95081.47
2024-03-09T13:04:13.964Z,95071.84
2024-03-09T13:06:41.268Z,95060.59
2024-03-09T13:09:08.543Z,95058.63
2024-03-09T13:11:35.367Z,95054.31
2024-03-09T13:14:02.224Z,95046.19
2024-03-09T13:16:29.054Z,95026.38
2024-03-09T13:18:57.145Z,95034.88
2024-03-09T13:21:23.931Z,95036.38
2024-03-09T13:23:50.663Z,95028.66
2024-03-09T13:26:17.502Z,95017.16
2024-03-09T13:28:44.283Z,95018.81
2024-03-09T13:31:11.159Z,95021.41
2024-03-09T13:33:37.959Z,95009.13
2024-03-09T13:36:06.728Z,95011.13
2024-03-09T13:38:33.452Z,95013.94
2024-03-09T13:41:00.232Z,95001.84
2024-03-09T13:43:26.992Z,95012.63
2024-03-09T13:45:53.743Z,95007.16
2024-03-09T13:48:20.490Z,95002.59
2024-03-09T13:50:47.217Z,94988.63
2024-03-09T13:53:15.412Z,94992.81
2024-03-09T13:55:42.239Z,94995.06
2024-03-09T13:58:09.043Z,94981.50
2024-03-09T14:00:35.762Z,94973.28
2024-03-09T14:03:02.634Z,94972.41
2024-03-09T14:05:29.492Z,94970.97
2024-03-09T14:07:56.789Z,94984.75
2024-03-09T14:10:28.228Z,94980.28
2024-03-09T14:12:55.232Z,94961.25
2024-03-09T14:15:22.277Z,94961.75
2024-03-09T14:17:49.860Z,94969.38
2024-03-09T14:20:16.727Z,94979.00
2024-03-09T14:22:43.588Z,94960.56
2024-03-09T14:25:10.353Z,94957.00
2024-03-09T14:27:38.428Z,94946.28
2024-03-09T14:30:07.826Z,94954.72
2024-03-09T14:32:34.682Z,94953.81
2024-03-09T14:35:01.578Z,94943.22
2024-03-09T14:37:30.092Z,94926.97
2024-03-09T14:39:56.810Z,94924.59
2024-03-09T14:42:23.618Z,94937.38
2024-03-09T14:44:51.713Z,94938.06
2024-03-09T14:47:18.569Z,94930.53
2024-03-09T14:49:45.312Z,94935.19
2024-03-09T14:52:12.149Z,94935.00
2024-03-09T14:54:38.926Z,94944.09
2024-03-09T14:57:05.659Z,94925.69
2024-03-09T14:59:32.378Z,94928.75
2024-03-09T15:02:00.421Z,94929.03
2024-03-09T15:04:27.225Z,94921.22
2024-03-09T15:06:53.954Z,94920.41
2024-03-09T15:09:20.703Z,94908.53
2024-03-09T15:11:47.823Z,94902.59
2024-03-09T15:14:14.753Z,94904.88
2024-03-09T15:16:41.594Z,94904.88
2024-03-09T15:19:09.789Z,94898.13
2024-03-09T15:21:36.535Z,94899.91
2024-03-09T15:24:03.705Z,94898.72
2024-03-09T15:26:31.273Z,94894.56
2024-03-09T15:28:58.974Z,94896.66
2024-03-09T15:31:26.225Z,94900.81
2024-03-09T15:33:52.966Z,94896.66
2024-03-09T15:36:21.064Z,94890.50
2024-03-09T15:38:47.867Z,94884.84
2024-03-09T15:41:15.351Z,94881.09
2024-03-09T15:43:42.483Z,94874.34
2024-03-09T15:46:09.327Z,94870.09
2024-03-09T15:48:36.106Z,94858.78
2024-03-09T15:51:03.177Z,94870.78
2024-03-09T15:53:31.996Z,94877.22
2024-03-09T15:55:58.771Z,94866.44
2024-03-09T15:58:25.588Z,94858.78
2024-03-09T16:00:52.459Z,94853.53
2024-03-09T16:03:19.162Z,94849.28
2024-03-09T16:05:45.956Z,94845.69
2024-03-09T16:08:14.837Z,94842.44
2024-03-09T16:10:44.066Z,94838.16
2024-03-09T16:13:10.948Z,94835.28
2024-03-09T16:15:37.676Z,94832.63
2024-03-09T16:18:05.038Z,94825.28
2024-03-09T16:20:32.487Z,94824.47
2024-03-09T16:22:59.496Z,94817.66
2024-03-09T16:25:27.131Z,94820.22
2024-03-09T16:27:55.969Z,94818.78
2024-03-09T16:30:22.705Z,94809.34
2024-03-09T16:32:49.501Z,94805.28
2024-03-09T16:35:16.545Z,94796.56
2024-03-09T16:37:43.386Z,94801.31
2024-03-09T16:40:10.921Z,94789.31
2024-03-09T16:42:37.644Z,94780.94
2024-03-09T16:45:06.869Z,94778.75
2024-03-09T16:47:33.652Z,94786.78
2024-03-09T16:50:00.506Z,94782.69
2024-03-09T16:52:27.280Z,94777.50
2024-03-09T16:54:54.013Z,94780.38
2024-03-09T16:57:23.116Z,94775.94
2024-03-09T16:59:50.462Z,94774.19
2024-03-09T17:02:18.591Z,94770.97
2024-03-09T17:04:45.400Z,94773.34
2024-03-09T17:07:12.201Z,94773.72
2024-03-09T17:09:38.964Z,94771.25
2024-03-09T17:12:06.326Z,94775.50
2024-03-09T17:14:33.257Z,94771.22
2024-03-09T17:17:00.029Z,94761.94
2024-03-09T17:19:28.317Z,94756.03
2024-03-09T17:21:55.019Z,94760.97
2024-03-09T17:24:21.782Z,94757.44
2024-03-09T17:26:48.575Z,94765.13
2024-03-09T17:29:15.408Z,94754.63
2024-03-09T17:31:42.269Z,94761.59
2024-03-09T17:34:09.082Z,94757.00
2024-03-09T17:36:37.167Z,94745.06
2024-03-09T17:39:04.115Z,94750.03
2024-03-09T17:41:30.955Z,94750.16
2024-03-09T17:43:57.859Z,94753.47
2024-03-09T17:46:24.691Z,94745.53
2024-03-09T17:48:51.543Z,94742.72
2024-03-09T17:51:18.648Z,94745.56
2024-03-09T17:53:46.884Z,94736.56
2024-03-09T17:56:14.624Z,94735.97
2024-03-09T17:58:42.991Z,94743.88
2024-03-09T18:01:09.769Z,94742.00
2024-03-09T18:03:36.504Z,94754.94
2024-03-09T18:06:03.628Z,94739.38
2024-03-09T18:08:30.434Z,94728.06
2024-03-09T18:10:58.577Z,94734.31
2024-03-09T18:13:25.382Z,94740.34
2024-03-09T18:15:52.254Z,94731.72
2024-03-09T18:18:19.072Z,94739.66
2024-03-09T18:20:45.889Z,94725.19
2024-03-09T18:23:13.416Z,94728.34
2024-03-09T18:25:40.743Z,94716.28
2024-03-09T18:28:09.577Z,94723.22
2024-03-09T18:30:36.613Z,94720.53
2024-03-09T18:33:03.991Z,94725.19
2024-03-09T18:35:30.790Z,94723.81
2024-03-09T18:37:57.594Z,94717.97
2024-03-09T18:40:24.315Z,94711.53
2024-03-09T18:42:51.025Z,94706.66
2024-03-09T18:45:19.124Z,94711.41
2024-03-09T18:47:45.869Z,94708.66
2024-03-09T18:50:12.945Z,94706.75
2024-03-09T18:52:39.776Z,94700.72
2024-03-09T18:55:07.734Z,94690.50
2024-03-09T18:57:34.585Z,94694.75
2024-03-09T19:00:02.583Z,94691.41
2024-03-09T19:02:31.753Z,94692.91
2024-03-09T19:04:58.731Z,94692.63
2024-03-09T19:07:25.610Z,94695.53
2024-03-09T19:09:52.316Z,94691.44
2024-03-09T19:12:19.093Z,94701.47
2024-03-09T19:14:45.874Z,94699.22
2024-03-09T19:17:12.747Z,94690.09
2024-03-09T19:19:40.882Z,94684.97
2024-03-09T19:22:07.621Z,94691.31
2024-03-09T19:24:34.337Z,94697.75
2024-03-09T19:27:01.089Z,94689.84
2024-03-09T19:29:27.921Z,94682.13
2024-03-09T19:31:54.707Z,94666.88
2024-03-09T19:34:21.600Z,94666.78
2024-03-09T19:36:49.694Z,94677.03
2024-03-09T19:39:16.533Z,94668.88
2024-03-09T19:41:43.367Z,94663.44
2024-03-09T19:44:10.245Z,94664.34
2024-03-09T19:46:37.063Z,94641.25
2024-03-09T19:49:03.836Z,94652.47
2024-03-09T19:51:30.869Z,94664.16
2024-03-09T19:53:59.280Z,94659.22
2024-03-09T19:56:26.168Z,94666.84
2024-03-09T19:58:52.917Z,94649.88
2024-03-09T20:01:19.633Z,94648.50
2024-03-09T20:03:46.425Z,94647.41
2024-03-09T20:06:13.202Z,94638.84
2024-03-09T20:08:40.004Z,94642.31
2024-03-09T20:11:08.183Z,94646.78
2024-03-09T20:13:35.047Z,94635.22
2024-03-09T20:16:01.809Z,94640.16
2024-03-09T20:18:28.690Z,94626.97
2024-03-09T20:20:55.595Z,94616.09
2024-03-09T20:23:22.368Z,94620.06
2024-03-09T20:25:49.313Z,94627.47
2024-03-09T20:28:17.406Z,94626.88
2024-03-09T20:30:44.135Z,94619.44
2024-03-09T20:33:10.928Z,94620.06
2024-03-09T20:35:37.798Z,94610.94
2024-03-09T20:38:06.687Z,94609.25
2024-03-09T20:40:35.520Z,94608.16
2024-03-09T20:43:02.332Z,94608.94
2024-03-09T20:45:30.457Z,94608.75
2024-03-09T20:47:57.450Z,94608.28
2024-03-09T20:50:24.518Z,94597.94
2024-03-09T20:52:51.393Z,94597.19
2024-03-09T20:55:18.363Z,94603.75
2024-03-09T20:57:45.115Z,94602.09
2024-03-09T21:00:12.844Z,94607.28
2024-03-09T21:02:41.000Z,94603.69
2024-03-09T21:05:08.640Z,94603.34
2024-03-09T21:07:35.486Z,94605.88
2024-03-09T21:10:02.230Z,94613.53
2024-03-09T21:12:29.040Z,94601.88
2024-03-09T21:14:55.773Z,94598.34
2024-03-09T21:17:22.509Z,94606.16
2024-03-09T21:19:50.717Z,94604.28
2024-03-09T21:22:17.488Z,94600.53
2024-03-09T21:24:44.270Z,94597.34
2024-03-09T21:27:11.041Z,94589.06
2024-03-09T21:29:37.921Z,94585.00
2024-03-09T21:32:05.387Z,94598.88
2024-03-09T21:34:32.175Z,94623.69
2024-03-09T21:37:00.277Z,94624.69
2024-03-09T21:39:30.196Z,94630.44
2024-03-09T21:41:56.995Z,94632.72
2024-03-09T21:44:23.748Z,94623.19
2024-03-09T21:46:50.552Z,94614.06
2024-03-09T21:49:17.264Z,94611.59
2024-03-09T21:51:44.146Z,94600.41
2024-03-09T21:54:12.436Z,94602.31
2024-03-09T21:56:39.178Z,94603.59
2024-03-09T21:59:05.971Z,94593.25
2024-03-09T22:01:32.918Z,94593.31
2024-03-09T22:03:59.843Z,94593.50
2024-03-09T22:06:26.637Z,94592.50
2024-03-09T22:08:53.606Z,94588.66
2024-03-09T22:11:21.946Z,94595.06
2024-03-09T22:13:48.766Z,94597.94
2024-03-09T22:16:15.568Z,94589.63
2024-03-09T22:18:42.362Z,94587.56
2024-03-09T22:21:10.161Z,94584.78
2024-03-09T22:23:36.958Z,94579.56
2024-03-09T22:26:04.068Z,94576.28
2024-03-09T22:28:32.170Z,94576.00
2024-03-09T22:30:58.918Z,94574.72
2024-03-09T22:33:25.600Z,94585.78
2024-03-09T22:35:52.448Z,94587.00
2024-03-09T22:38:19.244Z,94579.94
2024-03-09T22:40:46.034Z,94573.91
2024-03-09T22:43:12.939Z,94579.25
2024-03-09T22:45:41.337Z,94576.13
2024-03-09T22:48:08.352Z,94568.59
2024-03-09T22:50:35.204Z,94551.88
2024-03-09T22:53:01.980Z,94559.88
2024-03-09T22:55:28.700Z,94553.56
2024-03-09T22:57:55.414Z,94537.53
2024-03-09T23:00:22.133Z,94545.97
2024-03-09T23:02:50.222Z,94550.00
2024-03-09T23:05:17.284Z,94538.03
2024-03-09T23:07:44.063Z,94556.03
2024-03-09T23:10:10.831Z,94549.69
2024-03-09T23:12:37.542Z,94545.66
2024-03-09T23:15:04.766Z,94558.59
2024-03-09T23:17:31.815Z,94556.53
2024-03-09T23:20:00.109Z,94556.31
2024-03-09T23:22:26.843Z,94550.50
2024-03-09T23:24:53.637Z,94549.09
2024-03-09T23:27:20.420Z,94553.66
2024-03-09T23:29:47.165Z,94559.00
2024-03-09T23:32:13.946Z,94565.53
2024-03-09T23:34:41.291Z,94560.56
2024-03-09T23:37:09.436Z,94551.69
2024-03-09T23:39:36.136Z,94549.41
2024-03-09T23:42:02.898Z,94547.81
2024-03-09T23:44:29.907Z,94546.75
2024-03-09T23:46:56.740Z,94547.34
2024-03-09T23:49:23.478Z,94536.94
2024-03-09T23:51:50.193Z,94534.38
2024-03-09T23:54:18.258Z,94544.56
2024-03-09T23:56:44.969Z,94536.75
2024-03-09T23:59:11.784Z,94525.59
